createdAt,value
2022-11-08T00:01:58.629Z,7.20
2022-11-08T00:03:58.541Z,7.20
2022-11-08T00:05:58.530Z,7.20
2022-11-08T00:07:58.520Z,7.20
2022-11-08T00:09:58.494Z,7.20
2022-11-08T00:11:58.587Z,7.20
2022-11-08T00:13:58.606Z,7.20
2022-11-08T00:15:58.537Z,7.20
2022-11-08T00:17:58.689Z,7.20
2022-11-08T00:19:58.676Z,7.10
2022-11-08T00:21:58.575Z,7.10
2022-11-08T00:23:58.579Z,7.10
2022-11-08T00:28:09.367Z,7.00
2022-11-08T00:30:09.452Z,6.80
2022-11-08T00:32:09.416Z,6.80
2022-11-08T00:34:09.364Z,6.70
2022-11-08T00:36:09.370Z,6.70
2022-11-08T00:38:09.538Z,6.60
2022-11-08T00:40:09.405Z,6.60
2022-11-08T00:42:09.437Z,6.60
2022-11-08T00:44:09.394Z,6.60
2022-11-08T00:46:09.415Z,6.60
2022-11-08T00:48:09.372Z,6.60
2022-11-08T00:50:09.402Z,6.60
2022-11-08T00:52:09.366Z,6.80
2022-11-08T00:54:09.412Z,6.80
2022-11-08T00:56:09.397Z,6.80
2022-11-08T00:58:09.445Z,6.90
2022-11-08T01:00:09.413Z,6.90
2022-11-08T01:02:09.455Z,6.90
2022-11-08T01:04:09.423Z,6.90
2022-11-08T01:06:09.380Z,6.90
2022-11-08T01:08:09.402Z,6.90
2022-11-08T01:10:09.436Z,6.90
2022-11-08T01:12:09.410Z,7.00
2022-11-08T01:14:09.474Z,7.00
2022-11-08T01:16:09.410Z,7.00
2022-11-08T01:18:09.382Z,7.00
2022-11-08T01:20:09.485Z,7.00
2022-11-08T01:22:09.426Z,7.00
2022-11-08T01:24:09.533Z,7.10
2022-11-08T01:26:09.454Z,7.20
2022-11-08T01:28:09.480Z,7.20
2022-11-08T01:30:09.401Z,7.20
2022-11-08T01:32:09.420Z,7.20
2022-11-08T01:34:39.446Z,7.20
2022-11-08T01:36:39.430Z,7.20
2022-11-08T01:38:39.430Z,7.20
2022-11-08T01:40:39.416Z,7.10
2022-11-08T01:42:39.457Z,7.10
2022-11-08T01:44:39.408Z,7.10
2022-11-08T01:46:39.529Z,7.10
2022-11-08T01:48:39.461Z,7.10
2022-11-08T01:50:39.442Z,7.00
2022-11-08T01:52:39.567Z,7.00
2022-11-08T01:54:39.435Z,6.90
2022-11-08T01:56:39.515Z,6.90
2022-11-08T01:58:39.447Z,6.80
2022-11-08T02:00:39.547Z,6.80
2022-11-08T02:02:39.497Z,6.70
2022-11-08T02:04:39.435Z,6.60
2022-11-08T02:06:39.424Z,6.60
2022-11-08T02:08:39.578Z,6.50
2022-11-08T02:10:39.469Z,6.50
2022-11-08T02:12:39.460Z,6.50
2022-11-08T02:14:39.490Z,6.30
2022-11-08T02:16:39.429Z,6.30
2022-11-08T02:18:39.479Z,6.20
2022-11-08T02:20:39.430Z,6.10
2022-11-08T02:22:39.442Z,6.00
2022-11-08T02:24:39.479Z,6.00
2022-11-08T02:26:39.449Z,6.00
2022-11-08T02:28:39.454Z,5.90
2022-11-08T02:30:39.483Z,5.80
2022-11-08T02:32:39.440Z,5.80
2022-11-08T02:34:39.449Z,5.80
2022-11-08T02:36:39.455Z,5.80
2022-11-08T02:38:39.467Z,5.60
2022-11-08T02:40:39.545Z,5.50
2022-11-08T02:42:39.443Z,5.50
2022-11-08T02:44:39.457Z,5.50
2022-11-08T02:46:39.576Z,5.40
2022-11-08T02:48:39.519Z,5.30
2022-11-08T02:50:39.496Z,5.30
2022-11-08T02:52:39.592Z,5.30
2022-11-08T02:54:39.457Z,5.20
2022-11-08T02:56:39.503Z,4.90
2022-11-08T02:58:39.520Z,5.10
2022-11-08T03:00:39.487Z,4.90
2022-11-08T03:02:39.549Z,4.90
2022-11-08T03:04:39.457Z,4.90
2022-11-08T03:06:39.471Z,4.90
2022-11-08T03:08:39.518Z,4.90
2022-11-08T03:10:39.534Z,4.80
2022-11-08T03:12:39.496Z,4.80
2022-11-08T03:14:39.475Z,4.70
2022-11-08T03:16:39.606Z,4.70
2022-11-08T03:18:39.466Z,4.70
2022-11-08T03:20:39.597Z,4.70
2022-11-08T03:22:39.513Z,4.70
2022-11-08T03:24:39.625Z,4.50
2022-11-08T03:26:39.483Z,4.50
2022-11-08T03:29:09.568Z,4.50
2022-11-08T03:31:09.476Z,4.40
2022-11-08T03:33:09.486Z,4.30
2022-11-08T03:35:09.475Z,4.30
2022-11-08T03:37:09.596Z,4.30
2022-11-08T03:39:09.486Z,4.30
2022-11-08T03:41:09.546Z,4.20
2022-11-08T03:43:09.509Z,4.20
2022-11-08T03:45:09.471Z,4.20
2022-11-08T03:47:09.550Z,4.20
2022-11-08T03:49:09.468Z,4.30
2022-11-08T03:51:09.517Z,4.30
2022-11-08T03:53:09.522Z,4.30
2022-11-08T03:55:09.548Z,4.30
2022-11-08T03:57:09.500Z,4.50
2022-11-08T03:59:09.501Z,4.50
2022-11-08T04:01:09.541Z,4.60
2022-11-08T04:03:09.517Z,4.60
2022-11-08T04:05:09.563Z,4.50
2022-11-08T04:07:09.547Z,4.50
2022-11-08T04:09:09.508Z,4.50
2022-11-08T04:11:09.532Z,4.40
2022-11-08T04:13:09.488Z,4.40
2022-11-08T04:15:09.539Z,4.40
2022-11-08T04:17:09.493Z,4.40
2022-11-08T04:19:09.479Z,4.40
2022-11-08T04:21:09.537Z,4.40
2022-11-08T04:23:09.511Z,4.40
2022-11-08T04:25:09.537Z,4.50
2022-11-08T04:27:09.559Z,4.50
2022-11-08T04:29:09.514Z,4.60
2022-11-08T04:31:09.572Z,4.60
2022-11-08T04:33:09.534Z,4.60
2022-11-08T04:35:09.508Z,4.70
2022-11-08T04:37:09.513Z,4.70
2022-11-08T04:39:09.678Z,4.90
2022-11-08T04:41:09.541Z,4.90
2022-11-08T04:43:09.506Z,5.40
2022-11-08T04:45:09.509Z,5.60
2022-11-08T04:47:09.519Z,5.70
2022-11-08T04:49:09.592Z,5.70
2022-11-08T04:51:09.532Z,5.70
2022-11-08T04:53:09.509Z,6.00
2022-11-08T04:55:09.664Z,6.30
2022-11-08T04:57:09.542Z,6.40
2022-11-08T04:59:11.936Z,6.40
2022-11-08T05:01:09.644Z,6.40
2022-11-08T05:03:09.509Z,6.50
2022-11-08T05:05:09.572Z,6.70
2022-11-08T05:07:09.639Z,6.70
2022-11-08T05:09:09.655Z,6.70
2022-11-08T05:11:09.589Z,7.00
2022-11-08T05:13:09.529Z,7.00
2022-11-08T05:15:09.678Z,7.00
2022-11-08T05:17:09.549Z,7.10
2022-11-08T05:19:13.175Z,7.10
2022-11-08T05:21:09.548Z,7.10
2022-11-08T05:23:09.575Z,7.10
2022-11-08T05:25:39.557Z,7.20
2022-11-08T05:27:39.532Z,7.20
2022-11-08T05:29:42.205Z,7.20
2022-11-08T05:31:39.557Z,7.20
2022-11-08T05:33:39.623Z,7.20
2022-11-08T05:35:39.624Z,7.20
2022-11-08T05:37:39.672Z,7.20
2022-11-08T05:39:39.659Z,7.20
2022-11-08T05:41:39.589Z,7.40
2022-11-08T05:43:39.627Z,7.40
2022-11-08T05:45:39.618Z,7.40
2022-11-08T05:47:39.637Z,7.40
2022-11-08T05:49:39.560Z,7.40
2022-11-08T05:51:39.561Z,7.40
2022-11-08T05:53:39.686Z,7.40
2022-11-08T05:55:39.860Z,7.40
2022-11-08T05:57:39.583Z,7.40
2022-11-08T05:59:39.642Z,7.50
2022-11-08T06:01:39.702Z,7.60
2022-11-08T06:03:39.715Z,7.60
2022-11-08T06:05:39.567Z,7.60
2022-11-08T06:07:39.653Z,7.60
2022-11-08T06:09:39.684Z,7.60
2022-11-08T06:11:39.594Z,7.60
2022-11-08T06:13:39.619Z,7.50
2022-11-08T06:15:39.602Z,7.50
2022-11-08T06:17:39.593Z,7.40
2022-11-08T06:19:39.613Z,7.60
2022-11-08T06:21:39.685Z,7.50
2022-11-08T06:23:39.610Z,7.50
2022-11-08T06:25:41.097Z,7.40
2022-11-08T06:27:39.590Z,7.50
2022-11-08T06:29:39.603Z,7.50
2022-11-08T06:31:42.820Z,7.60
2022-11-08T06:33:39.561Z,7.60
2022-11-08T06:35:39.721Z,7.60
2022-11-08T06:37:39.572Z,7.60
2022-11-08T06:39:39.602Z,7.60
2022-11-08T06:41:39.609Z,7.60
2022-11-08T06:43:39.620Z,7.60
2022-11-08T06:45:39.611Z,7.60
2022-11-08T06:47:39.605Z,7.70
2022-11-08T06:49:39.587Z,7.70
2022-11-08T06:51:39.710Z,7.70
2022-11-08T06:53:39.584Z,7.90
2022-11-08T06:55:39.582Z,8.00
2022-11-08T06:57:39.596Z,7.90
2022-11-08T06:59:39.646Z,7.90
2022-11-08T07:01:44.558Z,7.90
2022-11-08T07:03:39.584Z,8.00
2022-11-08T07:05:39.781Z,8.10
2022-11-08T07:07:39.588Z,8.10
2022-11-08T07:09:39.650Z,8.10
2022-11-08T07:11:39.705Z,8.10
2022-11-08T07:13:39.708Z,8.30
2022-11-08T07:15:39.698Z,8.30
2022-11-08T07:17:39.581Z,8.40
2022-11-08T07:20:09.640Z,8.40
2022-11-08T07:22:09.696Z,8.40
2022-11-08T07:24:09.623Z,8.40
2022-11-08T07:26:09.624Z,8.50
2022-11-08T07:28:09.716Z,8.60
2022-11-08T07:30:09.720Z,8.80
2022-11-08T07:32:09.619Z,8.80
2022-11-08T07:34:09.663Z,8.80
2022-11-08T07:36:09.643Z,8.80
2022-11-08T07:38:09.660Z,8.90
2022-11-08T07:40:09.738Z,9.00
2022-11-08T07:42:09.684Z,9.00
2022-11-08T07:44:09.675Z,9.00
2022-11-08T07:46:09.721Z,9.00
2022-11-08T07:48:11.617Z,9.00
2022-11-08T07:52:18.286Z,9.00
2022-11-08T07:54:18.314Z,9.20
2022-11-08T07:56:18.351Z,9.20
2022-11-08T07:58:18.251Z,9.40
2022-11-08T08:00:18.268Z,9.50
2022-11-08T08:02:18.339Z,9.50
2022-11-08T08:04:18.244Z,9.60
2022-11-08T08:06:18.326Z,9.80
2022-11-08T08:08:18.318Z,9.90
2022-11-08T08:10:18.347Z,10.00
2022-11-08T08:12:18.296Z,10.00
2022-11-08T08:14:18.398Z,10.00
2022-11-08T08:16:18.289Z,10.00
2022-11-08T08:18:18.279Z,10.20
2022-11-08T08:20:18.464Z,10.40
2022-11-08T08:22:18.365Z,10.40
2022-11-08T08:24:18.416Z,10.50
2022-11-08T08:26:18.289Z,10.70
2022-11-08T08:28:18.317Z,10.80
2022-11-08T08:30:18.296Z,10.80
2022-11-08T08:32:18.319Z,10.80
2022-11-08T08:34:18.279Z,11.00
2022-11-08T08:36:18.319Z,10.90
2022-11-08T08:38:18.275Z,11.00
2022-11-08T08:40:18.422Z,11.00
2022-11-08T08:42:18.302Z,11.00
2022-11-08T08:44:18.340Z,11.00
2022-11-08T08:46:18.346Z,11.00
2022-11-08T08:48:18.285Z,11.00
2022-11-08T08:50:18.325Z,11.00
2022-11-08T08:52:18.318Z,11.10
2022-11-08T08:54:18.391Z,11.20
2022-11-08T08:56:18.353Z,11.20
2022-11-08T08:58:18.397Z,11.20
2022-11-08T09:02:18.312Z,11.30
2022-11-08T09:04:18.305Z,11.40
2022-11-08T09:06:18.299Z,11.60
2022-11-08T09:08:18.308Z,11.60
2022-11-08T09:10:18.350Z,11.60
2022-11-08T09:12:18.365Z,11.60
2022-11-08T09:14:18.333Z,11.70
2022-11-08T09:16:18.368Z,11.90
2022-11-08T09:18:18.375Z,11.90
2022-11-08T09:20:18.388Z,12.00
2022-11-08T09:22:18.409Z,12.10
2022-11-08T09:24:18.342Z,12.10
2022-11-08T09:26:18.359Z,12.10
2022-11-08T09:28:18.460Z,12.10
2022-11-08T09:30:18.334Z,12.00
2022-11-08T09:32:24.849Z,12.00
2022-11-08T09:34:21.527Z,12.00
2022-11-08T09:36:18.352Z,12.00
2022-11-08T09:38:18.573Z,12.00
2022-11-08T09:40:18.373Z,12.40
2022-11-08T09:42:18.348Z,13.00
2022-11-08T09:44:18.435Z,13.20
2022-11-08T09:46:18.465Z,13.20
2022-11-08T09:48:18.375Z,13.60
2022-11-08T09:50:48.373Z,14.00
2022-11-08T09:52:48.323Z,14.00
2022-11-08T09:54:48.388Z,14.00
2022-11-08T09:56:48.407Z,14.50
2022-11-08T09:58:48.358Z,14.40
2022-11-08T10:00:48.358Z,14.30
2022-11-08T10:02:48.463Z,14.40
2022-11-08T10:04:48.343Z,14.40
2022-11-08T10:06:48.388Z,14.80
2022-11-08T10:08:48.349Z,14.80
2022-11-08T10:10:48.398Z,15.00
2022-11-08T10:12:48.450Z,15.00
2022-11-08T10:14:53.940Z,15.00
2022-11-08T10:16:48.365Z,15.00
2022-11-08T10:18:48.518Z,14.70
2022-11-08T10:20:48.376Z,14.70
2022-11-08T10:22:48.421Z,14.70
2022-11-08T10:24:48.425Z,14.70
2022-11-08T10:26:48.470Z,15.20
2022-11-08T10:28:48.481Z,15.80
2022-11-08T10:30:48.513Z,16.30
2022-11-08T10:32:48.421Z,16.30
2022-11-08T10:34:48.359Z,16.30
2022-11-08T10:36:48.415Z,17.30
2022-11-08T10:38:48.399Z,17.20
2022-11-08T10:40:48.407Z,17.60
2022-11-08T10:42:48.412Z,17.60
2022-11-08T10:44:48.370Z,17.30
2022-11-08T10:46:48.394Z,17.10
2022-11-08T10:48:48.408Z,17.50
2022-11-08T10:50:48.411Z,17.50
2022-11-08T10:52:48.476Z,17.50
2022-11-08T10:54:48.455Z,17.80
2022-11-08T10:56:48.414Z,17.40
2022-11-08T10:58:48.490Z,17.40
2022-11-08T11:00:48.401Z,17.40
2022-11-08T11:02:48.503Z,17.40
2022-11-08T11:04:48.529Z,17.30
2022-11-08T11:06:48.468Z,16.90
2022-11-08T11:08:48.503Z,16.80
2022-11-08T11:10:48.447Z,16.80
2022-11-08T11:12:48.521Z,16.60
2022-11-08T11:14:48.395Z,16.60
2022-11-08T11:16:48.452Z,16.30
2022-11-08T11:18:48.435Z,16.20
2022-11-08T11:20:48.426Z,16.20
2022-11-08T11:22:48.445Z,15.90
2022-11-08T11:24:48.515Z,15.60
2022-11-08T11:26:48.484Z,15.60
2022-11-08T11:28:48.487Z,15.60
2022-11-08T11:30:48.532Z,15.60
2022-11-08T11:32:48.552Z,15.70
2022-11-08T11:34:48.448Z,15.60
2022-11-08T11:36:48.526Z,15.80
2022-11-08T11:38:48.538Z,15.80
2022-11-08T11:40:48.538Z,15.80
2022-11-08T11:42:48.486Z,15.70
2022-11-08T11:44:48.680Z,15.60
2022-11-08T11:46:48.473Z,15.60
2022-11-08T11:48:48.558Z,15.60
2022-11-08T11:51:18.452Z,16.20
2022-11-08T11:53:18.598Z,16.20
2022-11-08T11:55:18.495Z,16.20
2022-11-08T11:57:18.430Z,17.40
2022-11-08T11:59:18.517Z,17.10
2022-11-08T12:01:18.438Z,17.10
2022-11-08T12:03:18.784Z,17.00
2022-11-08T12:05:18.580Z,17.00
2022-11-08T12:07:18.502Z,16.90
2022-11-08T12:09:18.513Z,16.80
2022-11-08T12:11:18.490Z,16.80
2022-11-08T12:13:18.628Z,16.70
2022-11-08T12:15:18.559Z,16.70
2022-11-08T12:17:18.559Z,16.50
2022-11-08T12:19:18.673Z,16.40
2022-11-08T12:21:18.563Z,16.40
2022-11-08T12:23:18.511Z,16.40
2022-11-08T12:25:18.469Z,16.20
2022-11-08T12:27:18.516Z,16.10
2022-11-08T12:29:18.519Z,16.10
2022-11-08T12:31:18.522Z,16.00
2022-11-08T12:33:18.493Z,15.80
2022-11-08T12:35:18.568Z,15.80
2022-11-08T12:37:18.603Z,15.90
2022-11-08T12:39:23.376Z,15.90
2022-11-08T12:41:18.615Z,15.90
2022-11-08T12:43:19.023Z,15.90
2022-11-08T12:45:18.581Z,16.10
2022-11-08T12:47:18.575Z,16.40
2022-11-08T12:49:18.592Z,16.40
2022-11-08T12:51:18.542Z,16.50
2022-11-08T12:53:18.488Z,16.70
2022-11-08T12:55:18.541Z,16.70
2022-11-08T12:57:18.507Z,16.70
2022-11-08T12:59:18.502Z,16.80
2022-11-08T13:01:18.568Z,17.00
2022-11-08T13:03:18.677Z,16.90
2022-11-08T13:05:18.495Z,17.00
2022-11-08T13:07:18.928Z,17.00
2022-11-08T13:09:18.504Z,17.00
2022-11-08T13:11:18.564Z,16.90
2022-11-08T13:13:18.542Z,16.80
2022-11-08T13:15:18.542Z,16.80
2022-11-08T13:17:18.530Z,16.80
2022-11-08T13:19:18.500Z,16.30
2022-11-08T13:21:18.536Z,16.30
2022-11-08T13:23:18.555Z,16.30
2022-11-08T13:25:18.564Z,16.30
2022-11-08T13:27:18.654Z,16.30
2022-11-08T13:29:18.536Z,16.30
2022-11-08T13:31:18.535Z,16.30
2022-11-08T13:33:18.564Z,16.20
2022-11-08T13:35:18.620Z,16.20
2022-11-08T13:37:18.547Z,16.10
2022-11-08T13:39:18.914Z,16.10
2022-11-08T13:41:18.522Z,16.10
2022-11-08T13:43:18.510Z,16.10
2022-11-08T13:45:18.554Z,16.10
2022-11-08T13:47:18.555Z,16.10
2022-11-08T13:49:18.524Z,16.20
2022-11-08T13:51:18.530Z,16.30
2022-11-08T13:53:18.529Z,16.40
2022-11-08T13:55:48.523Z,16.40
2022-11-08T13:57:48.632Z,16.40
2022-11-08T13:59:48.535Z,16.60
2022-11-08T14:01:48.646Z,16.70
2022-11-08T14:03:48.556Z,16.70
2022-11-08T14:05:48.604Z,16.60
2022-11-08T14:07:48.639Z,16.60
2022-11-08T14:09:48.550Z,16.60
2022-11-08T14:11:48.618Z,16.60
2022-11-08T14:13:48.599Z,16.60
2022-11-08T14:15:48.618Z,16.50
2022-11-08T14:17:48.619Z,16.50
2022-11-08T14:19:48.614Z,16.40
2022-11-08T14:21:48.730Z,16.30
2022-11-08T14:23:48.624Z,16.30
2022-11-08T14:25:48.691Z,16.10
2022-11-08T14:27:48.638Z,15.80
2022-11-08T14:29:48.635Z,15.60
2022-11-08T14:31:48.694Z,15.60
2022-11-08T14:33:48.664Z,15.30
2022-11-08T14:35:48.749Z,15.20
2022-11-08T14:37:48.620Z,15.20
2022-11-08T14:39:48.748Z,15.00
2022-11-08T14:41:48.619Z,15.00
2022-11-08T14:43:48.660Z,15.00
2022-11-08T14:45:48.712Z,14.70
2022-11-08T14:47:48.680Z,14.60
2022-11-08T14:49:48.793Z,14.40
2022-11-08T14:51:48.809Z,14.40
2022-11-08T14:55:48.819Z,14.00
2022-11-08T14:59:51.495Z,13.90
2022-11-08T15:01:48.667Z,13.70
2022-11-08T15:05:36.893Z,13.40
2022-11-08T15:08:06.909Z,13.20
2022-11-08T15:10:06.974Z,13.10
2022-11-08T15:12:06.955Z,12.90
2022-11-08T15:14:06.866Z,12.90
2022-11-08T15:16:07.039Z,12.80
2022-11-08T15:18:06.867Z,12.80
2022-11-08T15:20:06.956Z,12.60
2022-11-08T15:22:06.898Z,12.60
2022-11-08T15:24:07.012Z,12.60
2022-11-08T15:26:06.955Z,12.40
2022-11-08T15:28:06.986Z,12.40
2022-11-08T15:30:06.864Z,12.40
2022-11-08T15:32:06.881Z,12.40
2022-11-08T15:34:06.874Z,12.20
2022-11-08T15:36:06.907Z,12.10
2022-11-08T15:38:06.933Z,12.10
2022-11-08T15:40:06.851Z,12.00
2022-11-08T15:42:06.979Z,12.00
2022-11-08T15:44:06.849Z,11.90
2022-11-08T15:46:06.831Z,11.80
2022-11-08T15:48:06.872Z,11.80
2022-11-08T15:50:06.952Z,11.80
2022-11-08T15:52:06.927Z,11.80
2022-11-08T15:54:06.910Z,11.80
2022-11-08T15:56:07.085Z,11.60
2022-11-08T15:58:06.923Z,11.60
2022-11-08T16:00:06.913Z,11.60
2022-11-08T16:02:06.938Z,11.60
2022-11-08T16:04:06.878Z,11.50
2022-11-08T16:06:06.962Z,11.50
2022-11-08T16:08:06.931Z,11.40
2022-11-08T16:10:06.991Z,11.40
2022-11-08T16:12:07.025Z,11.40
2022-11-08T16:14:06.878Z,11.40
2022-11-08T16:16:06.884Z,11.30
2022-11-08T16:18:06.965Z,11.20
2022-11-08T16:20:06.943Z,11.20
2022-11-08T16:22:06.910Z,11.20
2022-11-08T16:24:07.007Z,11.20
2022-11-08T16:26:06.967Z,11.20
2022-11-08T16:28:08.970Z,11.20
2022-11-08T16:30:06.879Z,11.10
2022-11-08T16:32:06.964Z,11.10
2022-11-08T16:34:06.913Z,11.10
2022-11-08T16:36:06.944Z,11.00
2022-11-08T16:38:06.966Z,11.00
2022-11-08T16:40:07.012Z,11.00
2022-11-08T16:42:06.957Z,11.00
2022-11-08T16:44:06.891Z,11.00
2022-11-08T16:46:07.232Z,11.00
2022-11-08T16:48:06.909Z,11.00
2022-11-08T16:50:06.992Z,10.90
2022-11-08T16:52:06.939Z,10.90
2022-11-08T16:54:07.030Z,10.80
2022-11-08T16:56:06.990Z,10.80
2022-11-08T16:58:06.959Z,10.80
2022-11-08T17:00:06.960Z,10.80
2022-11-08T17:02:06.990Z,10.70
2022-11-08T17:04:06.853Z,10.70
2022-11-08T17:06:06.934Z,10.70
2022-11-08T17:08:36.959Z,10.70
2022-11-08T17:10:37.018Z,10.70
2022-11-08T17:12:36.978Z,10.70
2022-11-08T17:14:37.011Z,10.70
2022-11-08T17:16:36.957Z,10.70
2022-11-08T17:18:36.960Z,10.70
2022-11-08T17:20:36.981Z,10.70
2022-11-08T17:22:37.002Z,10.70
2022-11-08T17:24:36.987Z,10.70
2022-11-08T17:26:37.008Z,10.70
2022-11-08T17:28:37.022Z,10.60
2022-11-08T17:30:36.932Z,10.60
2022-11-08T17:32:36.923Z,10.60
2022-11-08T17:34:36.928Z,10.60
2022-11-08T17:36:36.919Z,10.60
2022-11-08T17:38:36.967Z,10.50
2022-11-08T17:40:37.045Z,10.50
2022-11-08T17:42:38.308Z,10.50
2022-11-08T17:44:37.049Z,10.50
2022-11-08T17:46:36.936Z,10.40
2022-11-08T17:48:36.922Z,10.40
2022-11-08T17:50:36.983Z,10.40
2022-11-08T17:52:36.968Z,10.40
2022-11-08T17:54:36.971Z,10.40
2022-11-08T17:56:36.998Z,10.40
2022-11-08T17:58:37.022Z,10.40
2022-11-08T18:00:37.112Z,10.40
2022-11-08T18:02:36.932Z,10.40
2022-11-08T18:04:36.943Z,10.40
2022-11-08T18:06:37.011Z,10.40
2022-11-08T18:08:37.012Z,10.40
2022-11-08T18:10:36.995Z,10.40
2022-11-08T18:12:37.060Z,10.40
2022-11-08T18:14:37.037Z,10.40
2022-11-08T18:16:36.967Z,10.40
2022-11-08T18:18:36.925Z,10.40
2022-11-08T18:20:37.024Z,10.40
2022-11-08T18:22:37.039Z,10.40
2022-11-08T18:24:37.028Z,10.40
2022-11-08T18:26:37.074Z,10.40
2022-11-08T18:28:37.069Z,10.40
2022-11-08T18:30:37.072Z,10.40
2022-11-08T18:32:37.037Z,10.40
2022-11-08T18:34:37.078Z,10.40
2022-11-08T18:36:37.000Z,10.40
2022-11-08T18:38:36.999Z,10.40
2022-11-08T18:40:37.022Z,10.40
2022-11-08T18:42:37.049Z,10.40
2022-11-08T18:44:37.065Z,10.40
2022-11-08T18:46:41.826Z,10.40
2022-11-08T18:48:36.980Z,10.50
2022-11-08T18:50:36.993Z,10.50
2022-11-08T18:52:37.001Z,10.50
2022-11-08T18:54:37.021Z,10.60
2022-11-08T18:56:37.059Z,10.70
2022-11-08T18:58:37.094Z,10.70
2022-11-08T19:00:37.093Z,10.70
2022-11-08T19:02:36.954Z,10.70
2022-11-08T19:04:37.031Z,10.60
2022-11-08T19:06:37.057Z,10.60
2022-11-08T19:09:07.043Z,10.60
2022-11-08T19:11:07.050Z,10.50
2022-11-08T19:13:07.082Z,10.50
2022-11-08T19:15:07.067Z,10.50
2022-11-08T19:17:07.076Z,10.50
2022-11-08T19:19:07.000Z,10.50
2022-11-08T19:21:07.028Z,10.50
2022-11-08T19:23:07.057Z,10.50
2022-11-08T19:25:07.077Z,10.40
2022-11-08T19:27:07.058Z,10.40
2022-11-08T19:29:07.073Z,10.50
2022-11-08T19:31:07.099Z,10.50
2022-11-08T19:33:07.120Z,10.60
2022-11-08T19:35:07.085Z,10.60
2022-11-08T19:37:07.033Z,10.70
2022-11-08T19:39:07.070Z,10.70
2022-11-08T19:41:07.084Z,10.70
2022-11-08T19:43:07.079Z,10.80
2022-11-08T19:45:09.662Z,10.80
2022-11-08T19:47:07.101Z,10.80
2022-11-08T19:49:06.982Z,10.70
2022-11-08T19:51:07.061Z,10.70
2022-11-08T19:53:07.792Z,10.60
2022-11-08T19:55:07.079Z,10.50
2022-11-08T19:57:07.063Z,10.40
2022-11-08T19:59:07.071Z,10.40
2022-11-08T20:01:07.105Z,10.40
2022-11-08T20:03:07.133Z,10.40
2022-11-08T20:05:07.035Z,10.30
2022-11-08T20:07:07.071Z,10.20
2022-11-08T20:09:07.036Z,10.20
2022-11-08T20:11:07.092Z,10.20
2022-11-08T20:13:07.092Z,10.20
2022-11-08T20:15:07.126Z,10.20
2022-11-08T20:17:07.107Z,10.20
2022-11-08T20:19:07.009Z,10.20
2022-11-08T20:21:07.043Z,10.30
2022-11-08T20:23:07.051Z,10.20
2022-11-08T20:25:07.101Z,10.20
2022-11-08T20:27:07.230Z,10.20
2022-11-08T20:29:07.097Z,10.20
2022-11-08T20:31:07.173Z,10.20
2022-11-08T20:33:07.143Z,10.20
2022-11-08T20:35:08.655Z,10.20
2022-11-08T20:37:07.095Z,10.20
2022-11-08T20:39:07.981Z,10.20
2022-11-08T20:41:07.105Z,10.20
2022-11-08T20:43:07.079Z,10.20
2022-11-08T20:45:12.043Z,10.30
2022-11-08T20:47:07.086Z,10.30
2022-11-08T20:49:07.151Z,10.40
2022-11-08T20:51:07.097Z,10.40
2022-11-08T20:53:07.071Z,10.50
2022-11-08T20:55:07.100Z,10.60
2022-11-08T20:57:07.120Z,10.60
2022-11-08T20:59:07.156Z,10.70
2022-11-08T21:01:07.076Z,10.80
2022-11-08T21:03:07.168Z,10.80
2022-11-08T21:05:37.106Z,10.80
2022-11-08T21:08:01.762Z,10.80
2022-11-08T21:09:48.967Z,10.80
2022-11-08T21:11:37.103Z,10.80
2022-11-08T21:13:37.138Z,10.80
2022-11-08T21:15:37.193Z,10.80
2022-11-08T21:17:37.162Z,10.80
2022-11-08T21:19:37.209Z,10.80
2022-11-08T21:21:37.075Z,10.80
2022-11-08T21:23:37.064Z,10.80
2022-11-08T21:25:37.107Z,10.80
2022-11-08T21:27:37.115Z,10.70
2022-11-08T21:29:37.159Z,10.80
2022-11-08T21:31:37.091Z,10.90
2022-11-08T21:33:37.184Z,10.90
2022-11-08T21:35:37.128Z,10.80
2022-11-08T21:37:37.108Z,10.80
2022-11-08T21:39:37.128Z,10.80
2022-11-08T21:41:37.124Z,10.80
2022-11-08T21:43:37.141Z,10.80
2022-11-08T21:45:37.222Z,10.90
2022-11-08T21:47:37.206Z,10.90
2022-11-08T21:49:37.183Z,10.80
2022-11-08T21:51:37.118Z,10.80
2022-11-08T21:53:45.156Z,10.80
2022-11-08T21:55:37.147Z,10.80
2022-11-08T21:57:37.142Z,10.90
2022-11-08T21:59:37.165Z,11.00
2022-11-08T22:01:37.245Z,11.20
2022-11-08T22:03:37.162Z,11.20
2022-11-08T22:05:37.098Z,11.20
2022-11-08T22:07:37.209Z,11.20
2022-11-08T22:09:37.218Z,11.20
2022-11-08T22:11:37.136Z,11.20
2022-11-08T22:13:37.176Z,11.20
2022-11-08T22:15:37.243Z,11.00
2022-11-08T22:19:37.165Z,10.90
2022-11-08T22:21:37.248Z,10.90
2022-11-08T22:23:37.221Z,11.00
2022-11-08T22:29:45.517Z,11.30
2022-11-08T22:31:45.467Z,11.30
2022-11-08T22:33:45.466Z,11.20
2022-11-08T22:35:45.424Z,11.20
2022-11-08T22:37:45.544Z,11.10
2022-11-08T22:39:45.427Z,11.10
2022-11-08T22:41:45.419Z,11.10
2022-11-08T22:43:45.429Z,11.00
2022-11-08T22:45:45.429Z,11.00
2022-11-08T22:47:45.422Z,11.10
2022-11-08T22:49:45.495Z,11.10
2022-11-08T22:51:45.496Z,11.10
2022-11-08T22:53:45.457Z,11.20
2022-11-08T22:55:45.600Z,11.10
2022-11-08T22:57:45.478Z,11.20
2022-11-08T22:59:45.449Z,11.20
2022-11-08T23:01:45.486Z,11.20
2022-11-08T23:03:45.526Z,11.10
2022-11-08T23:05:45.456Z,11.10
2022-11-08T23:07:45.569Z,11.10
2022-11-08T23:09:45.446Z,11.00
2022-11-08T23:11:45.461Z,10.90
2022-11-08T23:13:45.492Z,10.90
2022-11-08T23:15:45.475Z,10.80
2022-11-08T23:17:45.447Z,10.80
2022-11-08T23:19:45.451Z,10.80
2022-11-08T23:21:45.491Z,10.80
2022-11-08T23:23:45.466Z,10.80
2022-11-08T23:25:45.680Z,10.80
2022-11-08T23:27:45.485Z,10.80
2022-11-08T23:29:45.451Z,10.70
2022-11-08T23:32:15.556Z,10.70
2022-11-08T23:34:15.448Z,10.60
2022-11-08T23:36:15.575Z,10.60
2022-11-08T23:38:20.097Z,10.60
2022-11-08T23:40:15.608Z,10.60
2022-11-08T23:42:15.456Z,10.50
2022-11-08T23:44:15.605Z,10.50
2022-11-08T23:46:15.458Z,10.40
2022-11-08T23:48:15.546Z,10.40
2022-11-08T23:50:15.546Z,10.40
2022-11-08T23:52:15.479Z,10.50
2022-11-08T23:54:15.521Z,10.50
2022-11-08T23:56:15.574Z,10.50
2022-11-08T23:58:15.498Z,10.40
